Latest Weather Observations for Strahan

IDT60801

Issued at 5:31 pm EST Friday 1 July 2016 (issued every 30 minutes, with the page automatically refreshed every 10 minutes)

About weather observations | Map of weather stations | Latest weather observations for TAS | Other Formats
Station Details ID: 097072 Name: STRAHAN AERODROME Lat: -42.16 Lon: 145.29 Height: 21.0 m
Data from the previous 72 hours. | See also: Recent months at Strahan
Date/Time
EST
Temp
°C
App
Temp
°C
Dew
Point
°C
Rel
Hum
%
Delta-T
°C
Wind Press
QNH
hPa
Press
MSL
hPa
Rain since
9am
mm
Dir  Spd
km/h
Gust
km/h
Spd
kts
Gust
kts
01/05:30pm 11.0 6.8 9.9 93 0.6 NW 22 28 12 15 1014.3 1014.4 1.6
01/05:00pm 10.8 7.0 9.7 93 0.6 NW 20 28 11 15 1014.1 1014.2 1.4
01/04:51pm 10.8 7.2 9.7 93 0.6 NW 19 28 10 15 1014.2 1014.3 1.4
01/04:30pm 10.8 4.9 9.1 89 0.8 NW 30 43 16 23 1014.1 1014.2 1.0
01/04:28pm 11.0 5.5 9.3 89 0.9 NW 28 43 15 23 1014.2 1014.3 1.0
01/04:00pm 11.0 7.1 9.4 90 0.8 NW 20 28 11 15 1014.0 1014.1 1.0
01/03:30pm 10.8 6.9 9.6 92 0.6 NW 20 28 11 15 1014.0 1014.1 1.0
01/03:02pm 10.5 7.5 9.3 92 0.6 NW 15 30 8 16 1014.0 1014.1 1.0
01/03:00pm 10.5 7.5 9.3 92 0.6 NW 15 24 8 13 1014.0 1014.1 1.0
01/02:33pm 10.5 5.6 8.3 86 1.1 NW 24 44 13 24 1014.0 1014.1 0.2
01/02:30pm 11.2 7.2 8.9 86 1.1 NNW 20 28 11 15 1013.9 1014.0 0.0
01/02:00pm 12.5 7.5 8.2 75 2.1 NW 24 35 13 19 1013.8 1013.9 0.0
01/01:30pm 11.5 7.8 7.8 78 1.8 NW 17 32 9 17 1014.0 1014.1 0.0
01/01:00pm 11.2 6.4 7.3 77 1.9 NW 22 32 12 17 1014.1 1014.2 0.0
01/12:30pm 11.2 6.6 8.2 82 1.5 NW 22 35 12 19 1014.3 1014.4 0.0
01/12:07pm 11.4 7.4 9.1 86 1.1 NW 20 28 11 15 1014.6 1014.7 0.0
01/12:00pm 10.3 5.7 8.2 87 1.0 WNW 22 33 12 18 1014.7 1014.8 0.0
01/11:49am 10.1 5.0 7.5 84 1.2 WNW 24 39 13 21 1014.8 1014.9 0.0
01/11:30am 11.4 6.4 6.5 72 2.3 NW 22 30 12 16 1014.8 1014.9 0.0
01/11:00am 11.5 6.2 6.8 73 2.2 WNW 24 37 13 20 1014.8 1014.9 0.0
01/10:30am 10.6 7.1 5.6 71 2.3 WNW 13 19 7 10 1014.7 1014.8 0.0
01/10:00am 10.6 6.0 5.6 71 2.3 WNW 19 30 10 16 1014.6 1014.7 0.0
01/09:30am 9.6 5.2 4.6 71 2.2 WNW 17 24 9 13 1014.3 1014.4 0.0
01/09:00am 9.3 4.6 5.1 75 1.9 W 19 24 10 13 1014.0 1014.1 21.2
01/08:30am 9.0 4.8 5.6 79 1.5 W 17 20 9 11 1013.7 1013.8 21.2
01/08:00am 9.0 4.3 6.1 82 1.3 W 20 30 11 16 1013.3 1013.4 21.2
01/07:30am 8.6 6.3 7.5 93 0.5 SSW 9 13 5 7 1012.9 1013.0 21.2
01/07:00am 8.3 6.0 7.4 94 0.4 NE 9 11 5 6 1012.6 1012.7 21.0
01/06:35am 8.8 6.6 8.0 95 0.4 WSW 9 15 5 8 1012.2 1012.3 21.0
01/06:30am 8.7 6.1 7.9 95 0.4 SW 11 15 6 8 1012.1 1012.2 21.0
01/06:26am 8.7 6.1 7.9 95 0.4 SW 11 15 6 8 1012.1 1012.2 21.0
01/06:10am 8.4 5.8 7.8 96 0.3 SW 11 17 6 9 1011.9 1012.0 21.0
01/06:00am 7.3 5.4 6.6 95 0.3 NW 6 9 3 5 1011.8 1011.9 21.0
01/05:54am 7.0 4.4 6.3 95 0.3 N 9 13 5 7 1011.6 1011.7 21.0
01/05:30am 7.2 4.3 6.5 95 0.3 N 11 13 6 7 1011.1 1011.2 19.4
01/05:19am 7.0 4.4 6.3 95 0.3 NW 9 11 5 6 1011.2 1011.3 19.2
01/05:00am 6.9 3.9 6.2 95 0.3 NNE 11 15 6 8 1010.7 1010.8 19.0
01/04:30am 6.3 2.8 5.6 95 0.3 NNE 13 15 7 8 1010.3 1010.4 18.6
01/04:00am 6.3 2.8 5.6 95 0.3 NNE 13 17 7 9 1010.0 1010.1 18.6
01/03:30am 6.4 3.3 5.7 95 0.3 NNE 11 17 6 9 1009.9 1010.0 18.6
01/03:00am 6.2 3.1 5.5 95 0.3 NNE 11 15 6 8 1009.7 1009.8 18.6
01/02:30am 5.9 3.1 5.2 95 0.3 NNE 9 11 5 6 1009.4 1009.5 18.6
01/02:00am 5.5 2.6 4.8 95 0.3 N 9 11 5 6 1009.1 1009.2 18.6
01/01:30am 5.6 3.3 4.7 94 0.4 NW 6 7 3 4 1008.6 1008.7 18.6
01/01:00am 6.3 4.1 5.4 94 0.4 NNE 6 11 3 6 1007.9 1008.0 18.6
01/12:30am 6.6 4.3 5.9 95 0.3 NNE 7 11 4 6 1007.5 1007.6 18.6
01/12:00am 6.8 4.6 6.1 95 0.3 NE 7 11 4 6 1007.1 1007.2 18.6
 
Date/Time
EST
Temp
°C
App
Temp
°C
Dew
Point
°C
Rel
Hum
%
Delta-T
°C
Wind Press
QNH
hPa
Press
MSL
hPa
Rain since
9am
mm
Dir  Spd
km/h
Gust
km/h
Spd
kts
Gust
kts
30/11:30pm 6.8 4.2 6.1 95 0.3 NNE 9 9 5 5 1006.9 1007.0 18.6
30/11:14pm 7.2 6.0 6.5 95 0.3 NE 2 7 1 4 1006.8 1006.9 18.6
30/11:00pm 6.7 5.7 5.8 94 0.4 CALM 0 0 0 0 1006.7 1006.8 18.6
30/10:54pm 6.6 5.6 5.7 94 0.4 CALM 0 0 0 0 1006.6 1006.7 18.6
30/10:30pm 6.7 5.7 5.8 94 0.4 CALM 0 0 0 0 1006.2 1006.3 18.6
30/10:00pm 7.1 6.2 6.2 94 0.4 CALM 0 7 0 4 1005.7 1005.8 18.6
30/09:30pm 7.4 5.5 6.5 94 0.4 SSW 6 11 3 6 1005.3 1005.4 18.6
30/09:00pm 7.6 6.4 6.5 93 0.5 ENE 2 6 1 3 1004.8 1004.9 18.6
30/08:30pm 8.0 5.6 7.1 94 0.4 ENE 9 13 5 7 1004.3 1004.4 18.6
30/08:00pm 8.0 5.6 6.9 93 0.5 E 9 11 5 6 1004.3 1004.4 18.6
30/07:30pm 8.1 6.3 7.0 93 0.5 ENE 6 7 3 4 1004.0 1004.1 18.6
30/07:00pm 8.3 5.6 7.2 93 0.5 NNW 11 17 6 9 1003.6 1003.7 18.6
30/06:30pm 8.5 4.1 7.4 93 0.5 N 20 28 11 15 1003.0 1003.1 18.4
30/06:00pm 8.8 6.6 7.7 93 0.5 N 9 13 5 7 1003.0 1003.1 16.8
30/05:30pm 8.9 6.0 8.0 94 0.4 N 13 20 7 11 1001.9 1002.0 16.8
30/05:05pm 9.2 6.3 8.3 94 0.4 NNE 13 20 7 11 1001.6 1001.7 16.8
30/05:00pm 9.2 6.7 8.3 94 0.4 NNE 11 19 6 10 1001.5 1001.6 16.8
30/04:30pm 9.5 7.1 8.6 94 0.4 NNW 11 13 6 7 1001.4 1001.5 15.4
30/04:28pm 9.5 7.1 8.6 94 0.4 NNW 11 13 6 7 1001.4 1001.5 15.2
30/04:00pm 9.5 6.0 8.6 94 0.4 N 17 20 9 11 1001.0 1001.1 14.6
30/03:52pm 9.5 6.3 8.6 94 0.4 N 15 20 8 11 1000.9 1000.9 14.6
30/03:30pm 9.6 6.0 8.5 93 0.5 N 17 28 9 15 1000.8 1000.8 13.6
30/03:23pm 9.6 6.4 8.5 93 0.5 N 15 22 8 12 1000.8 1000.8 13.0
30/03:17pm 9.6 6.0 8.5 93 0.5 N 17 22 9 12 1000.7 1000.7 12.6
30/03:00pm 9.7 5.8 8.6 93 0.5 N 19 26 10 14 1000.4 1000.4 12.0
30/02:57pm 9.7 5.6 8.6 93 0.5 N 20 30 11 16 1000.4 1000.4 11.8
30/02:30pm 10.0 5.9 8.8 92 0.6 N 20 28 11 15 1000.2 1000.2 9.8
30/02:00pm 10.0 6.5 8.8 92 0.6 N 17 24 9 13 1000.2 1000.2 6.6
30/01:51pm 10.0 6.1 8.6 91 0.7 N 19 30 10 16 1000.3 1000.3 5.4
30/01:37pm 10.0 6.1 8.6 91 0.7 N 19 28 10 15 1000.2 1000.2 4.4
30/01:30pm 9.8 6.6 8.4 91 0.7 NNE 15 22 8 12 1000.2 1000.2 4.2
30/01:21pm 9.9 6.7 8.5 91 0.7 NNE 15 20 8 11 1000.2 1000.2 3.6
30/01:00pm 10.0 6.8 8.4 90 0.8 NNE 15 28 8 15 1000.3 1000.3 2.4
30/12:30pm 10.2 6.2 8.1 87 1.0 N 19 30 10 16 1000.7 1000.7 1.6
30/12:00pm 10.2 6.5 8.0 86 1.1 N 17 28 9 15 1000.9 1000.9 1.2
30/11:30am 9.9 6.2 8.0 88 0.9 N 17 30 9 16 1001.4 1001.5 1.2
30/11:00am 9.8 5.7 7.7 87 1.0 N 19 30 10 16 1001.9 1002.0 1.2
30/10:30am 10.0 4.5 7.6 85 1.1 N 26 41 14 22 1002.4 1002.5 0.4
30/10:23am 10.0 4.1 7.6 85 1.1 N 28 46 15 25 1002.5 1002.6 0.4
30/10:00am 10.7 4.0 7.2 79 1.7 N 32 46 17 25 1002.7 1002.8 0.0
30/09:44am 11.1 4.0 6.5 73 2.2 N 33 52 18 28 1002.8 1002.9 0.0
30/09:30am 11.2 4.4 6.7 74 2.1 N 32 46 17 25 1002.9 1003.0 0.0
30/09:00am 11.3 3.8 6.4 72 2.3 N 35 56 19 30 1003.0 1003.1 0.4
30/08:30am 11.2 4.2 6.1 71 2.4 N 32 59 17 32 1003.1 1003.2 0.4
30/08:08am 11.2 4.6 6.1 71 2.4 N 30 48 16 26 1003.3 1003.4 0.4
30/08:00am 11.4 3.8 5.9 69 2.6 N 35 50 19 27 1003.4 1003.5 0.4
30/07:30am 11.3 4.7 6.0 70 2.5 N 30 50 16 27 1003.8 1003.9 0.4
30/07:00am 11.2 4.2 5.9 70 2.5 N 32 50 17 27 1004.1 1004.2 0.4
30/06:42am 11.2 4.0 5.7 69 2.5 N 33 56 18 30 1004.3 1004.4 0.4
30/06:30am 11.0 4.4 6.0 71 2.3 N 30 43 16 23 1004.5 1004.6 0.4
30/06:00am 11.1 3.5 5.8 70 2.5 N 35 54 19 29 1004.8 1004.9 0.4
30/05:42am 10.9 3.8 5.4 69 2.5 N 32 50 17 27 1005.1 1005.2 0.4
30/05:30am 10.9 3.8 5.7 70 2.4 N 32 46 17 25 1005.3 1005.4 0.4
30/05:01am 10.9 3.6 5.4 69 2.5 N 33 52 18 28 1005.8 1005.9 0.4
30/05:00am 10.9 3.2 5.4 69 2.5 N 35 52 19 28 1005.8 1005.9 0.4
30/04:36am 10.8 4.4 5.3 69 2.5 N 28 46 15 25 1006.3 1006.4 0.4
30/04:30am 10.7 4.4 5.5 70 2.4 N 28 43 15 23 1006.4 1006.5 0.4
30/04:00am 10.8 5.1 5.1 68 2.6 N 24 43 13 23 1006.8 1006.9 0.4
30/03:30am 10.6 4.5 4.9 68 2.6 N 26 43 14 23 1007.2 1007.3 0.4
30/03:00am 10.2 4.6 5.2 71 2.3 NNE 24 35 13 19 1008.1 1008.2 0.4
30/02:30am 10.2 4.2 5.2 71 2.3 NNE 26 43 14 23 1008.7 1008.8 0.4
30/02:00am 10.1 5.2 5.3 72 2.2 NNE 20 28 11 15 1009.5 1009.6 0.4
30/01:30am 10.3 5.0 5.1 70 2.4 N 22 46 12 25 1009.9 1010.0 0.4
30/01:00am 10.2 4.9 5.2 71 2.3 NNE 22 35 12 19 1010.4 1010.5 0.4
30/12:31am 10.6 4.1 4.9 68 2.6 N 28 50 15 27 1011.0 1011.1 0.4
30/12:30am 10.6 4.5 4.9 68 2.6 N 26 50 14 27 1011.0 1011.1 0.4
30/12:23am 10.6 4.1 4.9 68 2.6 N 28 46 15 25 1011.3 1011.4 0.4
30/12:00am 10.4 4.1 5.6 72 2.2 N 28 43 15 23 1011.9 1012.0 0.4
 
Date/Time
EST
Temp
°C
App
Temp
°C
Dew
Point
°C
Rel
Hum
%
Delta-T
°C
Wind Press
QNH
hPa
Press
MSL
hPa
Rain since
9am
mm
Dir  Spd
km/h
Gust
km/h
Spd
kts
Gust
kts
29/11:30pm 10.2 5.8 7.3 82 1.4 N 20 39 11 21 1012.4 1012.5 0.4
29/11:00pm 10.6 6.6 6.7 77 1.8 N 17 24 9 13 1013.0 1013.1 0.2
29/10:30pm 10.6 5.6 6.6 76 1.9 N 22 33 12 18 1013.3 1013.4 0.2
29/10:00pm 10.7 6.2 6.3 74 2.1 N 19 35 10 19 1014.2 1014.3 0.2
29/09:30pm 10.4 7.1 6.4 76 1.9 N 13 19 7 10 1014.5 1014.6 0.2
29/09:00pm 10.9 6.9 6.5 74 2.1 N 17 26 9 14 1015.0 1015.1 0.2
29/08:30pm 10.9 6.5 6.6 75 2.0 N 19 32 10 17 1015.3 1015.4 0.2
29/08:00pm 11.1 6.5 6.6 74 2.1 N 20 28 11 15 1015.7 1015.7 0.2
29/07:30pm 11.1 6.8 7.0 76 2.0 N 19 26 10 14 1015.9 1015.9 0.2
29/07:00pm 11.5 7.1 7.4 76 2.0 N 20 33 11 18 1016.0 1016.0 0.2
29/06:30pm 11.0 5.8 7.1 77 1.9 N 24 33 13 18 1016.2 1016.2 0.2
29/06:00pm 11.1 6.6 7.0 76 1.9 N 20 37 11 20 1016.4 1016.4 0.2
29/05:30pm 11.3 6.6 7.6 78 1.8 N 22 35 12 19 1016.8 1016.8 0.2
29/05:00pm 11.4 7.8 8.3 81 1.5 N 17 24 9 13 1017.1 1017.1 0.2
29/04:30pm 11.7 7.5 8.4 80 1.6 N 20 35 11 19 1017.4 1017.4 0.2
29/04:00pm 12.2 7.9 10.6 90 0.8 NW 24 37 13 20 1017.5 1017.5 0.2
29/03:30pm 13.2 8.4 8.9 75 2.2 NNW 24 30 13 16 1017.8 1017.8 0.0
29/03:00pm 13.9 9.1 8.7 71 2.6 NNW 24 35 13 19 1018.0 1018.0 0.0
29/02:30pm 14.7 9.9 8.9 68 3.0 NNW 24 32 13 17 1018.3 1018.3 0.0
29/02:00pm 14.5 8.8 8.5 67 3.0 NNW 28 35 15 19 1018.7 1018.7 0.0
29/01:30pm 14.7 10.1 9.5 71 2.7 NNW 24 33 13 18 1018.9 1018.9 0.0
29/01:00pm 14.7 9.7 9.5 71 2.7 NNW 26 32 14 17 1019.4 1019.4 0.0
29/12:30pm 14.5 9.0 9.3 71 2.7 NW 28 41 15 22 1019.8 1019.8 0.0
29/12:00pm 13.9 8.6 9.9 77 2.1 NW 28 35 15 19 1020.2 1020.2 0.0
29/11:30am 13.4 8.8 9.8 79 1.8 NW 24 33 13 18 1020.5 1020.5 0.0
29/11:00am 13.7 8.5 10.3 80 1.8 NW 28 35 15 19 1020.8 1020.8 0.0
29/10:30am 13.3 8.1 10.1 81 1.7 NW 28 37 15 20 1020.8 1020.8 0.0
29/10:00am 12.9 7.7 10.1 83 1.4 NW 28 35 15 19 1020.6 1020.6 0.0
29/09:30am 12.8 7.6 10.3 85 1.3 NW 28 35 15 19 1020.6 1020.6 0.0
29/09:00am 12.6 7.4 10.3 86 1.2 NW 28 37 15 20 1020.6 1020.6 15.6
29/08:30am 12.6 7.5 10.5 87 1.1 NW 28 37 15 20 1020.4 1020.4 15.6
29/08:00am 12.5 7.7 10.4 87 1.1 NW 26 35 14 19 1020.1 1020.1 15.6
29/07:30am 12.4 7.3 10.6 89 0.9 WNW 28 39 15 21 1019.9 1019.9 15.6
29/07:04am 12.2 8.1 11.3 94 0.5 WNW 24 37 13 20 1019.6 1019.6 15.6
29/07:00am 11.9 8.7 11.1 95 0.4 W 19 30 10 16 1019.6 1019.6 15.6
29/06:30am 11.2 7.5 10.3 94 0.5 WSW 20 30 11 16 1019.5 1019.5 14.6
29/06:04am 11.3 7.7 10.4 94 0.5 WSW 20 33 11 18 1019.3 1019.3 13.6
29/06:00am 11.2 7.1 10.1 93 0.6 WSW 22 33 12 18 1019.3 1019.3 12.8
29/05:32am 11.8 7.1 10.5 92 0.7 W 26 44 14 24 1019.1 1019.1 8.2
29/05:30am 12.0 7.7 10.7 92 0.7 W 24 41 13 22 1019.1 1019.1 7.6
29/05:28am 12.1 7.8 10.8 92 0.7 W 24 35 13 19 1019.1 1019.1 6.6
29/05:17am 12.5 7.9 11.1 91 0.7 WNW 26 39 14 21 1018.9 1018.9 4.8
29/05:09am 12.5 7.5 10.9 90 0.8 WNW 28 41 15 22 1018.7 1018.7 4.2
29/05:00am 12.4 7.0 10.8 90 0.8 NW 30 44 16 24 1018.5 1018.5 4.0
29/04:30am 12.7 6.6 10.4 86 1.2 NW 33 44 18 24 1018.2 1018.2 3.6
29/04:27am 12.7 6.6 10.4 86 1.2 NW 33 44 18 24 1018.2 1018.2 3.6
29/04:05am 12.5 6.0 10.4 87 1.1 NW 35 44 19 24 1018.3 1018.3 3.6
29/04:03am 12.5 6.0 10.4 87 1.1 NW 35 44 19 24 1018.3 1018.3 3.6
29/04:00am 12.5 6.0 10.4 87 1.1 NW 35 44 19 24 1018.3 1018.3 3.6
29/03:51am 12.5 6.4 10.6 88 1.0 NW 33 44 18 24 1018.4 1018.4 3.6
29/03:31am 12.2 5.7 10.4 89 0.9 NW 35 54 19 29 1018.4 1018.4 3.6
29/03:30am 12.2 5.3 10.4 89 0.9 NW 37 54 20 29 1018.4 1018.4 3.6
29/03:14am 12.3 5.8 10.2 87 1.1 NW 35 57 19 31 1018.2 1018.2 3.6
29/03:00am 12.3 5.7 10.0 86 1.2 NW 35 46 19 25 1018.3 1018.3 3.6
29/02:30am 12.8 6.4 9.4 80 1.7 NW 33 44 18 24 1018.3 1018.3 3.6
29/02:00am 12.8 6.0 9.4 80 1.7 NW 35 46 19 25 1018.5 1018.5 3.6
29/01:30am 12.7 5.8 9.0 78 1.9 NW 35 46 19 25 1018.4 1018.4 3.6
29/01:00am 12.7 6.5 9.2 79 1.8 NW 32 43 17 23 1018.5 1018.5 3.6
29/12:30am 12.7 5.9 9.3 80 1.7 NW 35 48 19 26 1018.5 1018.5 3.6
29/12:00am 12.6 6.2 9.4 81 1.6 NW 33 43 18 23 1018.6 1018.6 3.6
 
Date/Time
EST
Temp
°C
App
Temp
°C
Dew
Point
°C
Rel
Hum
%
Delta-T
°C
Wind Press
QNH
hPa
Press
MSL
hPa
Rain since
9am
mm
Dir  Spd
km/h
Gust
km/h
Spd
kts
Gust
kts
28/11:30pm 12.7 7.0 9.7 82 1.5 NW 30 43 16 23 1018.7 1018.7 3.6
28/11:00pm 12.6 6.5 9.6 82 1.5 NW 32 46 17 25 1018.6 1018.6 3.6
28/10:30pm 12.6 6.5 9.6 82 1.5 NW 32 44 17 24 1018.7 1018.7 3.6
28/10:00pm 12.7 6.3 9.5 81 1.6 NW 33 48 18 26 1018.6 1018.6 3.6
28/09:30pm 12.7 6.4 9.7 82 1.5 NW 33 43 18 23 1018.5 1018.5 3.6
28/09:00pm 12.7 6.3 9.5 81 1.6 NW 33 44 18 24 1018.3 1018.3 3.6
28/08:30pm 12.9 6.9 10.1 83 1.4 NW 32 43 17 23 1018.2 1018.2 3.6
28/08:00pm 12.6 6.3 9.8 83 1.4 NW 33 48 18 26 1018.1 1018.1 3.6
28/07:30pm 12.9 6.3 10.1 83 1.4 NW 35 52 19 28 1017.9 1017.9 3.6
28/07:26pm 12.8 6.6 10.0 83 1.4 NW 33 52 18 28 1017.9 1017.9 3.6
28/07:00pm 12.8 6.3 10.3 85 1.3 NW 35 48 19 26 1017.7 1017.7 3.6
28/06:30pm 12.8 6.3 10.5 86 1.2 NW 35 46 19 25 1017.5 1017.5 3.6
28/06:00pm 12.7 6.8 10.6 87 1.1 NW 32 44 17 24 1017.2 1017.2 3.6

Other Formats:

Comma delimited format used in spreadsheet applications
http://www.bom.gov.au/fwo/IDT60801/IDT60801.94956.axf

JavaScript Object Notation format (JSON) in row-major order
http://www.bom.gov.au/fwo/IDT60801/IDT60801.94956.json